createdAt,value
2019-01-18T00:00:59.855Z,6.00
2019-01-18T00:03:27.871Z,9.40
2019-01-18T00:05:56.263Z,3.77
2019-01-18T00:08:24.180Z,7.93
2019-01-18T00:10:52.143Z,9.70
2019-01-18T00:13:20.088Z,7.77
2019-01-18T00:15:49.304Z,7.23
2019-01-18T00:18:17.179Z,8.77
2019-01-18T00:20:45.064Z,7.63
2019-01-18T00:23:13.040Z,9.97
2019-01-18T00:25:40.963Z,7.10
2019-01-18T00:28:09.135Z,11.10
2019-01-18T00:30:37.195Z,6.67
2019-01-18T00:33:05.018Z,6.73
2019-01-18T00:35:33.187Z,9.10
2019-01-18T00:38:01.101Z,10.67
2019-01-18T00:40:29.054Z,9.73
2019-01-18T00:42:57.535Z,9.53
2019-01-18T00:45:25.483Z,6.13
2019-01-18T00:47:53.418Z,6.83
2019-01-18T00:50:21.348Z,5.60
2019-01-18T00:52:49.312Z,8.33
2019-01-18T00:55:17.249Z,5.30
2019-01-18T00:57:45.148Z,6.67
2019-01-18T01:00:14.663Z,5.87
2019-01-18T01:02:42.938Z,6.53
2019-01-18T01:05:11.293Z,11.33
2019-01-18T01:07:39.386Z,13.93
2019-01-18T01:10:07.898Z,5.97
2019-01-18T01:12:35.799Z,8.87
2019-01-18T01:15:06.206Z,7.13
2019-01-18T01:17:34.256Z,8.77
2019-01-18T01:20:03.133Z,11.83
2019-01-18T01:22:32.380Z,10.77
2019-01-18T01:25:00.266Z,7.60
2019-01-18T01:27:28.240Z,7.00
2019-01-18T01:29:56.203Z,9.50
2019-01-18T01:32:24.115Z,7.63
2019-01-18T01:34:52.147Z,5.77
2019-01-18T01:37:20.208Z,8.80
2019-01-18T01:39:48.086Z,6.47
2019-01-18T01:42:16.204Z,5.80
2019-01-18T01:44:44.149Z,7.77
2019-01-18T01:47:12.400Z,8.40
2019-01-18T01:49:40.344Z,6.33
2019-01-18T01:52:08.234Z,4.83
2019-01-18T01:54:36.357Z,12.00
2019-01-18T01:57:04.350Z,8.23
2019-01-18T01:59:32.270Z,7.73
2019-01-18T02:02:00.216Z,6.73
2019-01-18T02:04:29.354Z,9.57
2019-01-18T02:06:57.275Z,13.70
2019-01-18T02:09:25.179Z,8.07
2019-01-18T02:11:53.094Z,6.07
2019-01-18T02:14:21.080Z,8.63
2019-01-18T02:16:49.223Z,8.10
2019-01-18T02:19:18.494Z,7.97
2019-01-18T02:21:46.459Z,8.00
2019-01-18T02:24:14.392Z,5.93
2019-01-18T02:26:42.315Z,7.40
2019-01-18T02:29:10.306Z,5.00
2019-01-18T02:31:38.261Z,9.93
2019-01-18T02:34:06.199Z,6.30
2019-01-18T02:36:34.425Z,8.03
2019-01-18T02:39:02.626Z,5.27
2019-01-18T02:41:30.591Z,5.87
2019-01-18T02:43:58.494Z,6.60
2019-01-18T02:46:26.536Z,9.27
2019-01-18T02:48:54.508Z,7.03
2019-01-18T02:51:22.636Z,5.67
2019-01-18T02:53:50.674Z,9.20
2019-01-18T02:56:18.561Z,8.10
2019-01-18T02:58:46.504Z,11.40
2019-01-18T03:01:14.503Z,6.97
2019-01-18T03:03:42.419Z,3.87
2019-01-18T03:06:10.397Z,7.93
2019-01-18T03:08:38.485Z,8.40
2019-01-18T03:11:06.427Z,8.03
2019-01-18T03:13:34.334Z,4.37
2019-01-18T03:16:02.401Z,8.97
2019-01-18T03:18:30.264Z,5.67
2019-01-18T03:20:58.613Z,6.70
2019-01-18T03:23:26.634Z,8.83
2019-01-18T03:25:56.356Z,6.93
2019-01-18T03:28:24.243Z,7.90
2019-01-18T03:30:52.241Z,6.03
2019-01-18T03:33:20.201Z,6.87
2019-01-18T03:35:48.186Z,7.93
2019-01-18T03:38:16.196Z,8.30
2019-01-18T03:40:44.151Z,9.57
2019-01-18T03:43:12.113Z,4.47
2019-01-18T03:45:43.194Z,6.57
2019-01-18T03:48:11.186Z,7.23
2019-01-18T03:50:39.090Z,7.87
2019-01-18T03:53:07.068Z,8.00
2019-01-18T03:55:35.131Z,7.57
2019-01-18T03:58:03.023Z,9.53
2019-01-18T04:00:30.967Z,6.03
2019-01-18T04:02:59.029Z,10.53
2019-01-18T04:05:27.109Z,8.80
2019-01-18T04:07:55.002Z,9.43
2019-01-18T04:10:23.021Z,8.83
2019-01-18T04:12:51.378Z,9.67
2019-01-18T04:15:19.738Z,7.40
2019-01-18T04:17:47.651Z,5.57
2019-01-18T04:20:16.416Z,5.93
2019-01-18T04:22:44.315Z,6.73
2019-01-18T04:25:14.659Z,8.43
2019-01-18T04:27:42.652Z,11.37
2019-01-18T04:30:12.012Z,9.70
2019-01-18T04:32:40.036Z,14.83
2019-01-18T04:35:08.147Z,14.47
2019-01-18T04:37:36.055Z,7.00
2019-01-18T04:40:06.071Z,7.03
2019-01-18T04:42:34.091Z,11.23
2019-01-18T04:45:04.967Z,4.70
2019-01-18T04:47:32.950Z,7.53
2019-01-18T04:50:00.871Z,5.07
2019-01-18T04:52:28.813Z,4.97
2019-01-18T04:54:57.250Z,7.77
2019-01-18T04:57:26.587Z,6.23
2019-01-18T04:59:54.711Z,5.80
2019-01-18T05:02:22.740Z,9.97
2019-01-18T05:04:51.456Z,5.83
2019-01-18T05:07:19.370Z,12.37
2019-01-18T05:09:47.420Z,9.27
2019-01-18T05:12:15.302Z,10.73
2019-01-18T05:14:44.175Z,13.30
2019-01-18T05:17:12.159Z,12.43
2019-01-18T05:19:41.535Z,11.93
2019-01-18T05:22:09.603Z,7.97
2019-01-18T05:24:37.646Z,10.57
2019-01-18T05:27:14.700Z,6.63
2019-01-18T05:29:42.960Z,10.00
2019-01-18T05:32:10.905Z,8.53
2019-01-18T05:34:38.898Z,10.97
2019-01-18T05:37:06.962Z,8.70
2019-01-18T05:39:34.923Z,8.57
2019-01-18T05:42:02.866Z,8.83
2019-01-18T05:44:30.800Z,6.07
2019-01-18T05:46:58.686Z,9.80
2019-01-18T05:49:26.607Z,6.37
2019-01-18T05:51:54.531Z,5.53
2019-01-18T05:54:22.951Z,10.10
2019-01-18T05:56:52.495Z,9.23
2019-01-18T05:59:20.442Z,8.03
2019-01-18T06:01:49.512Z,6.53
2019-01-18T06:04:17.678Z,5.40
2019-01-18T06:06:45.677Z,9.43
2019-01-18T06:09:13.544Z,9.87
2019-01-18T06:11:41.476Z,6.27
2019-01-18T06:14:09.418Z,10.10
2019-01-18T06:16:37.369Z,4.17
2019-01-18T06:19:06.546Z,4.23
2019-01-18T06:21:37.859Z,10.70
2019-01-18T06:24:05.952Z,6.10
2019-01-18T06:26:33.916Z,7.83
2019-01-18T06:29:03.227Z,12.33
2019-01-18T06:31:31.306Z,10.90
2019-01-18T06:33:59.571Z,7.03
2019-01-18T06:36:27.533Z,5.50
2019-01-18T06:38:55.552Z,5.63
2019-01-18T06:41:38.844Z,6.77
2019-01-18T06:44:06.730Z,8.47
2019-01-18T06:46:34.844Z,10.20
2019-01-18T06:49:03.232Z,9.13
2019-01-18T06:51:31.199Z,7.53
2019-01-18T06:53:59.166Z,11.33
2019-01-18T06:56:27.679Z,11.77
2019-01-18T06:58:55.669Z,11.67
2019-01-18T07:01:23.664Z,10.60
2019-01-18T07:03:51.772Z,9.10
2019-01-18T07:06:19.809Z,6.50
2019-01-18T07:08:47.727Z,6.53
2019-01-18T07:11:15.601Z,9.47
2019-01-18T07:13:43.618Z,16.23
2019-01-18T07:16:11.484Z,10.17
2019-01-18T07:18:39.518Z,16.77
2019-01-18T07:21:07.471Z,10.13
2019-01-18T07:23:35.723Z,8.97
2019-01-18T07:26:03.629Z,10.13
2019-01-18T07:28:32.951Z,7.77
2019-01-18T07:31:00.954Z,10.40
2019-01-18T07:33:29.111Z,9.47
2019-01-18T07:35:57.022Z,6.30
2019-01-18T07:38:25.685Z,8.53
2019-01-18T07:40:53.707Z,8.07
2019-01-18T07:43:21.676Z,14.77
2019-01-18T07:45:49.662Z,9.03
2019-01-18T07:48:17.692Z,5.93
2019-01-18T07:50:45.890Z,8.63
2019-01-18T07:53:16.399Z,9.83
2019-01-18T07:55:44.423Z,6.07
2019-01-18T07:58:12.530Z,11.03
2019-01-18T08:00:41.884Z,6.87
2019-01-18T08:03:09.995Z,11.43
2019-01-18T08:05:38.249Z,8.20
2019-01-18T08:08:06.266Z,9.00
2019-01-18T08:10:35.112Z,11.10
2019-01-18T08:13:03.346Z,11.93
2019-01-18T08:15:31.227Z,9.20
2019-01-18T08:17:59.199Z,10.97
2019-01-18T08:20:27.781Z,10.63
2019-01-18T08:22:56.848Z,7.37
2019-01-18T08:25:24.847Z,12.50
2019-01-18T08:27:54.167Z,12.37
2019-01-18T08:30:23.222Z,7.17
2019-01-18T08:32:51.128Z,12.23
2019-01-18T08:35:19.569Z,10.97
2019-01-18T08:37:47.670Z,10.23
2019-01-18T08:40:37.907Z,7.83
2019-01-18T08:43:08.407Z,8.73
2019-01-18T08:45:37.996Z,9.37
2019-01-18T08:48:06.374Z,7.00
2019-01-18T08:50:41.793Z,8.43
2019-01-18T08:53:10.014Z,7.30
2019-01-18T08:55:38.397Z,8.33
2019-01-18T08:58:06.410Z,8.93
2019-01-18T09:00:35.997Z,8.17
2019-01-18T09:03:04.096Z,6.20
2019-01-18T09:05:33.149Z,9.53
2019-01-18T09:08:01.345Z,7.90
2019-01-18T09:10:29.331Z,6.77
2019-01-18T09:12:58.451Z,8.73
2019-01-18T09:15:26.471Z,7.00
2019-01-18T09:17:55.526Z,11.20
2019-01-18T09:20:24.611Z,7.07
2019-01-18T09:22:52.663Z,9.87
2019-01-18T09:25:22.403Z,10.80
2019-01-18T09:27:50.357Z,11.57
2019-01-18T09:30:23.055Z,11.73
2019-01-18T09:32:51.583Z,8.60
2019-01-18T09:35:20.033Z,10.60
2019-01-18T09:37:48.136Z,10.83
2019-01-18T09:40:17.627Z,10.10
2019-01-18T09:42:53.031Z,9.03
2019-01-18T09:45:21.024Z,7.20
2019-01-18T09:47:50.207Z,7.37
2019-01-18T09:50:19.290Z,10.77
2019-01-18T09:52:47.346Z,7.57
2019-01-18T09:55:15.445Z,9.77
2019-01-18T09:57:43.396Z,9.33
2019-01-18T10:00:13.529Z,6.60
2019-01-18T10:02:41.435Z,7.70
2019-01-18T10:05:09.952Z,5.83
2019-01-18T10:07:43.864Z,6.93
2019-01-18T10:10:13.452Z,8.57
2019-01-18T10:12:42.588Z,4.97
2019-01-18T10:15:11.964Z,8.80
2019-01-18T10:17:39.937Z,8.77
2019-01-18T10:20:09.139Z,9.17
2019-01-18T10:22:37.147Z,8.47
2019-01-18T10:25:05.562Z,7.07
2019-01-18T10:27:33.606Z,11.00
2019-01-18T10:30:01.732Z,7.43
2019-01-18T10:32:29.757Z,7.70
2019-01-18T10:34:57.744Z,7.70
2019-01-18T10:37:26.838Z,9.57
2019-01-18T10:39:54.797Z,9.70
2019-01-18T10:42:22.775Z,10.67
2019-01-18T10:44:50.785Z,8.60
2019-01-18T10:47:18.736Z,6.17
2019-01-18T10:49:46.596Z,5.40
2019-01-18T10:52:14.467Z,5.73
2019-01-18T10:54:42.475Z,10.87
2019-01-18T10:57:10.498Z,10.60
2019-01-18T10:59:38.477Z,8.97
2019-01-18T11:02:07.228Z,10.57
2019-01-18T11:04:35.410Z,6.17
2019-01-18T11:07:04.116Z,7.37
2019-01-18T11:09:32.363Z,5.53
2019-01-18T11:12:00.328Z,8.20
2019-01-18T11:14:28.339Z,7.03
2019-01-18T11:16:56.204Z,6.97
2019-01-18T11:19:24.118Z,9.20
2019-01-18T11:21:52.104Z,7.27
2019-01-18T11:24:20.061Z,8.23
2019-01-18T11:26:49.568Z,11.43
2019-01-18T11:29:20.682Z,6.57
2019-01-18T11:31:48.633Z,7.70
2019-01-18T11:34:16.563Z,6.90
2019-01-18T11:36:44.560Z,8.13
2019-01-18T11:39:12.683Z,8.87
2019-01-18T11:41:40.785Z,7.07
2019-01-18T11:44:08.838Z,6.80
2019-01-18T11:46:36.714Z,13.03
2019-01-18T11:49:04.671Z,7.13
2019-01-18T11:51:32.540Z,5.57
2019-01-18T11:54:00.414Z,10.50
2019-01-18T11:56:29.723Z,9.10
2019-01-18T11:58:58.819Z,6.17
2019-01-18T12:01:26.775Z,7.87
2019-01-18T12:03:54.783Z,8.33
2019-01-18T12:06:22.758Z,7.20
2019-01-18T12:08:50.693Z,8.17
2019-01-18T12:11:18.690Z,8.90
2019-01-18T12:13:46.606Z,8.10
2019-01-18T12:16:14.556Z,8.73
2019-01-18T12:18:42.461Z,8.33
2019-01-18T12:21:10.434Z,6.27
2019-01-18T12:23:38.331Z,6.93
2019-01-18T12:26:07.202Z,8.57
2019-01-18T12:28:35.183Z,9.50
2019-01-18T12:31:03.113Z,8.27
2019-01-18T12:33:31.126Z,5.70
2019-01-18T12:35:59.018Z,7.03
2019-01-18T12:38:26.863Z,7.20
2019-01-18T12:40:54.771Z,7.83
2019-01-18T12:43:22.711Z,9.17
2019-01-18T12:45:50.715Z,10.20
2019-01-18T12:48:18.803Z,12.17
2019-01-18T12:50:47.069Z,8.03
2019-01-18T12:53:16.463Z,9.63
2019-01-18T12:55:44.377Z,8.83
2019-01-18T12:58:12.334Z,8.03
2019-01-18T13:00:40.264Z,7.87
2019-01-18T13:03:08.450Z,10.80
2019-01-18T13:05:40.654Z,8.40
2019-01-18T13:08:08.616Z,9.20
2019-01-18T13:10:38.063Z,9.77
2019-01-18T13:13:06.058Z,10.63
2019-01-18T13:15:47.369Z,8.00
2019-01-18T13:18:15.288Z,13.77
2019-01-18T13:20:43.168Z,8.47
2019-01-18T13:23:11.585Z,7.97
2019-01-18T13:25:39.440Z,8.27
2019-01-18T13:28:07.382Z,9.17
2019-01-18T13:30:35.319Z,9.87
2019-01-18T13:33:03.266Z,8.20
2019-01-18T13:35:31.158Z,9.93
2019-01-18T13:38:00.404Z,11.57
2019-01-18T13:40:29.351Z,7.33
2019-01-18T13:42:57.347Z,7.70
2019-01-18T13:45:25.266Z,9.90
2019-01-18T13:47:53.207Z,9.73
2019-01-18T13:50:21.121Z,7.00
2019-01-18T13:52:49.039Z,7.50
2019-01-18T13:55:18.288Z,8.97
2019-01-18T13:57:46.231Z,9.17
2019-01-18T14:00:16.433Z,7.70
2019-01-18T14:02:48.349Z,8.43
2019-01-18T14:05:14.111Z,8.67
2019-01-18T14:07:43.249Z,8.53
2019-01-18T14:10:15.451Z,9.83
2019-01-18T14:12:43.419Z,7.63
2019-01-18T14:15:11.652Z,9.27
2019-01-18T14:17:39.834Z,9.27
2019-01-18T14:20:11.742Z,7.50
2019-01-18T14:22:38.855Z,9.87
2019-01-18T14:25:06.966Z,9.37
2019-01-18T14:27:35.616Z,11.80
2019-01-18T14:30:05.044Z,7.57
2019-01-18T14:32:33.076Z,5.83
2019-01-18T14:35:02.325Z,12.93
2019-01-18T14:37:30.321Z,10.53
2019-01-18T14:39:58.322Z,10.33
2019-01-18T14:42:26.323Z,8.33
2019-01-18T14:44:54.404Z,9.53
2019-01-18T14:47:22.402Z,8.03
2019-01-18T14:49:50.451Z,7.10
2019-01-18T14:52:18.386Z,8.17
2019-01-18T14:54:46.502Z,10.03
2019-01-18T14:57:15.688Z,11.07
2019-01-18T14:59:43.728Z,9.70
2019-01-18T15:02:11.807Z,10.20
2019-01-18T15:04:40.313Z,8.87
2019-01-18T15:07:08.304Z,10.50
2019-01-18T15:09:37.199Z,7.23
2019-01-18T15:12:05.344Z,12.47
2019-01-18T15:14:33.478Z,9.03
2019-01-18T15:17:04.509Z,9.00
2019-01-18T15:19:32.634Z,7.93
2019-01-18T15:22:00.671Z,7.80
2019-01-18T15:24:28.723Z,8.53
2019-01-18T15:26:56.863Z,11.70
2019-01-18T15:29:25.177Z,8.50
2019-01-18T15:31:53.239Z,8.70
2019-01-18T15:34:21.571Z,11.67
2019-01-18T15:37:00.136Z,8.97
2019-01-18T15:39:28.242Z,10.07
2019-01-18T15:41:56.199Z,7.97
2019-01-18T15:44:30.012Z,6.57
2019-01-18T15:46:58.350Z,7.77
2019-01-18T15:49:26.788Z,9.37
2019-01-18T15:51:54.793Z,10.07
2019-01-18T15:54:22.800Z,10.97
2019-01-18T15:56:50.751Z,9.03
2019-01-18T15:59:18.829Z,11.60
2019-01-18T16:01:46.833Z,8.47
2019-01-18T16:04:14.886Z,9.27
2019-01-18T16:06:45.117Z,8.30
2019-01-18T16:09:13.011Z,15.43
2019-01-18T16:11:41.632Z,8.03
2019-01-18T16:14:09.646Z,11.87
2019-01-18T16:16:42.698Z,9.00
2019-01-18T16:19:13.886Z,10.37
2019-01-18T16:21:43.317Z,9.27
2019-01-18T16:24:11.313Z,10.10
2019-01-18T16:26:39.357Z,10.37
2019-01-18T16:29:07.314Z,12.57
2019-01-18T16:31:35.363Z,11.07
2019-01-18T16:34:03.349Z,17.47
2019-01-18T16:36:32.366Z,11.27
2019-01-18T16:39:00.303Z,11.40
2019-01-18T16:41:30.425Z,11.37
2019-01-18T16:43:59.754Z,12.37
2019-01-18T16:46:27.803Z,11.47
2019-01-18T16:48:56.056Z,11.03
2019-01-18T16:51:25.253Z,14.83
2019-01-18T16:53:53.541Z,10.90
2019-01-18T16:56:21.581Z,12.07
2019-01-18T16:58:50.121Z,11.60
2019-01-18T17:01:18.165Z,13.00
2019-01-18T17:03:46.327Z,17.47
2019-01-18T17:06:14.363Z,11.87
2019-01-18T17:08:42.288Z,14.17
2019-01-18T17:11:10.307Z,11.53
2019-01-18T17:13:39.060Z,11.23
2019-01-18T17:16:07.217Z,11.80
2019-01-18T17:18:35.295Z,12.70
2019-01-18T17:21:03.390Z,5.43
2019-01-18T17:23:31.604Z,11.70
2019-01-18T17:25:59.740Z,14.23
2019-01-18T17:28:27.864Z,11.70
2019-01-18T17:30:55.842Z,10.77
2019-01-18T17:33:23.875Z,12.70
2019-01-18T17:36:03.408Z,10.80
2019-01-18T17:39:03.165Z,10.60
2019-01-18T17:41:50.438Z,15.73
2019-01-18T17:44:49.586Z,12.87
2019-01-18T17:47:42.897Z,13.70
2019-01-18T17:50:26.008Z,11.37
2019-01-18T17:53:11.793Z,10.53
2019-01-18T17:56:04.727Z,10.47
2019-01-18T17:58:50.343Z,12.23
2019-01-18T18:01:32.382Z,13.10
2019-01-18T18:04:18.232Z,13.27
2019-01-18T18:07:11.470Z,15.20
2019-01-18T18:10:07.512Z,13.80
2019-01-18T18:12:53.448Z,14.30
2019-01-18T18:15:42.476Z,13.97
2019-01-18T18:18:38.648Z,19.57
2019-01-18T18:21:38.013Z,26.07
2019-01-18T18:24:25.943Z,20.00
2019-01-18T18:27:04.502Z,23.90
2019-01-18T18:29:50.383Z,25.13
2019-01-18T18:32:55.966Z,27.20
2019-01-18T18:35:50.189Z,31.90
2019-01-18T18:38:44.584Z,26.90
2019-01-18T18:41:40.977Z,30.80
2019-01-18T18:44:23.180Z,27.20
2019-01-18T18:46:55.814Z,29.37
2019-01-18T18:49:47.404Z,30.10
2019-01-18T18:52:23.661Z,31.47
2019-01-18T18:55:09.411Z,39.20
2019-01-18T18:57:55.113Z,31.40
2019-01-18T19:00:52.582Z,31.07
2019-01-18T19:03:42.474Z,32.73
2019-01-18T19:06:16.224Z,28.43
2019-01-18T19:08:49.472Z,28.83
2019-01-18T19:11:27.235Z,33.37
2019-01-18T19:14:13.997Z,29.93
2019-01-18T19:17:02.888Z,30.50
2019-01-18T19:19:39.369Z,30.37
2019-01-18T19:22:32.323Z,31.70
2019-01-18T19:25:16.878Z,28.60
2019-01-18T19:27:50.609Z,32.23
2019-01-18T19:30:57.359Z,28.90
2019-01-18T19:33:44.508Z,26.63
2019-01-18T19:36:31.083Z,31.13
2019-01-18T19:39:21.366Z,27.23
2019-01-18T19:42:08.553Z,25.97
2019-01-18T19:45:03.050Z,24.07
2019-01-18T19:47:43.575Z,29.10
2019-01-18T19:50:33.603Z,25.33
2019-01-18T19:53:24.425Z,29.43
2019-01-18T19:56:11.509Z,25.50
2019-01-18T19:59:10.769Z,25.40
2019-01-18T20:01:45.635Z,23.67
2019-01-18T20:04:26.631Z,22.20
2019-01-18T20:07:15.497Z,18.70
2019-01-18T20:09:47.056Z,22.20
2019-01-18T20:12:28.859Z,23.33
2019-01-18T20:15:00.447Z,22.80
2019-01-18T20:17:46.348Z,20.60
2019-01-18T20:20:21.076Z,21.57
2019-01-18T20:23:07.041Z,21.83
2019-01-18T20:25:48.791Z,22.07
2019-01-18T20:28:34.693Z,18.33
2019-01-18T20:31:20.377Z,18.93
2019-01-18T20:34:10.514Z,20.40
2019-01-18T20:36:56.860Z,29.77
2019-01-18T20:39:40.535Z,21.43
2019-01-18T20:42:21.274Z,21.47
2019-01-18T20:45:00.182Z,21.23
2019-01-18T20:47:53.147Z,19.77
2019-01-18T20:50:40.399Z,22.10
2019-01-18T20:53:36.511Z,21.73
2019-01-18T20:56:29.732Z,24.60
2019-01-18T20:59:03.260Z,22.33
2019-01-18T21:01:52.964Z,24.63
2019-01-18T21:04:46.301Z,24.53
2019-01-18T21:07:23.787Z,24.67
2019-01-18T21:10:10.912Z,27.03
2019-01-18T21:12:50.934Z,24.50
2019-01-18T21:15:23.212Z,30.00
2019-01-18T21:18:12.438Z,31.80
2019-01-18T21:20:59.689Z,38.70
2019-01-18T21:23:46.913Z,33.33
2019-01-18T21:26:32.925Z,38.40
2019-01-18T21:29:20.652Z,39.20
2019-01-18T21:32:12.121Z,37.03
2019-01-18T21:34:58.265Z,45.20
2019-01-18T21:38:00.536Z,44.40
2019-01-18T21:40:48.659Z,48.47
2019-01-18T21:43:44.846Z,47.10
2019-01-18T21:46:27.643Z,47.00
2019-01-18T21:49:19.010Z,53.27
2019-01-18T21:52:06.233Z,53.30
2019-01-18T21:54:56.499Z,54.70
2019-01-18T21:57:39.906Z,56.17
2019-01-18T22:00:24.160Z,54.33
2019-01-18T22:03:14.499Z,52.97
2019-01-18T22:05:53.508Z,57.13
2019-01-18T22:08:35.447Z,55.13
2019-01-18T22:11:23.040Z,55.40
2019-01-18T22:14:14.070Z,55.77
2019-01-18T22:17:01.091Z,64.27
2019-01-18T22:19:48.370Z,62.97
2019-01-18T22:22:20.261Z,61.03
2019-01-18T22:25:06.007Z,69.47
2019-01-18T22:27:44.283Z,57.90
2019-01-18T22:30:34.372Z,53.90
2019-01-18T22:33:11.234Z,61.73
2019-01-18T22:35:53.767Z,55.73
2019-01-18T22:38:49.599Z,58.83
2019-01-18T22:41:34.660Z,54.10
2019-01-18T22:44:16.585Z,56.03
2019-01-18T22:47:16.029Z,54.57
2019-01-18T22:49:49.662Z,54.10
2019-01-18T22:52:22.346Z,51.27
2019-01-18T22:55:12.205Z,55.80
2019-01-18T22:57:58.072Z,46.97
2019-01-18T23:00:59.771Z,51.07
2019-01-18T23:03:55.841Z,51.60
2019-01-18T23:06:46.006Z,44.37
2019-01-18T23:09:37.426Z,44.53
2019-01-18T23:12:27.262Z,45.40
2019-01-18T23:15:29.723Z,44.43
2019-01-18T23:18:03.674Z,46.17
2019-01-18T23:20:49.420Z,41.47
2019-01-18T23:23:27.073Z,45.97
2019-01-18T23:26:14.343Z,46.07
2019-01-18T23:28:50.442Z,43.90
2019-01-18T23:31:49.529Z,41.87
2019-01-18T23:34:36.648Z,45.13
2019-01-18T23:37:16.922Z,43.70
2019-01-18T23:39:56.602Z,40.90
2019-01-18T23:42:42.527Z,45.20
2019-01-18T23:45:28.471Z,41.73
2019-01-18T23:48:14.309Z,43.43
2019-01-18T23:51:01.380Z,39.83
2019-01-18T23:53:35.316Z,35.53
2019-01-18T23:56:21.231Z,36.30
2019-01-18T23:58:54.881Z,38.33
